createdAt,value
2019-05-16T00:00:27.000Z,40.1
2019-05-16T00:01:33.000Z,40.2
2019-05-16T00:02:39.000Z,40.1
2019-05-16T00:03:45.000Z,40.1
2019-05-16T00:04:51.000Z,40.1
2019-05-16T00:05:58.000Z,40
2019-05-16T00:07:04.000Z,40.1
2019-05-16T00:08:10.000Z,40
2019-05-16T00:09:16.000Z,40.1
2019-05-16T00:10:22.000Z,40
2019-05-16T00:11:29.000Z,40
2019-05-16T00:12:35.000Z,40
2019-05-16T00:13:41.000Z,39.9
2019-05-16T00:14:47.000Z,39.9
2019-05-16T00:15:53.000Z,40
2019-05-16T00:16:59.000Z,39.9
2019-05-16T00:18:06.000Z,40
2019-05-16T00:19:12.000Z,39.9
2019-05-16T00:20:18.000Z,40
2019-05-16T00:21:24.000Z,40
2019-05-16T00:22:30.000Z,40
2019-05-16T00:23:36.000Z,39.9
2019-05-16T00:24:43.000Z,40
2019-05-16T00:25:49.000Z,39.9
2019-05-16T00:26:55.000Z,40
2019-05-16T00:29:07.000Z,40
2019-05-16T00:30:14.000Z,40
2019-05-16T00:31:20.000Z,39.9
2019-05-16T00:32:26.000Z,39.9
2019-05-16T00:33:32.000Z,39.9
2019-05-16T00:34:38.000Z,40
2019-05-16T00:35:44.000Z,39.9
2019-05-16T00:36:51.000Z,39.9
2019-05-16T00:37:57.000Z,39.9
2019-05-16T00:39:03.000Z,39.9
2019-05-16T00:40:09.000Z,39.9
2019-05-16T00:41:15.000Z,40
2019-05-16T00:42:21.000Z,40
2019-05-16T00:43:28.000Z,40
2019-05-16T00:44:34.000Z,40
2019-05-16T00:45:40.000Z,40
2019-05-16T00:46:46.000Z,40
2019-05-16T00:47:52.000Z,39.9
2019-05-16T00:48:59.000Z,39.9
2019-05-16T00:50:05.000Z,40
2019-05-16T00:51:11.000Z,39.9
2019-05-16T00:52:17.000Z,40
2019-05-16T00:53:23.000Z,40
2019-05-16T00:54:29.000Z,40
2019-05-16T00:55:36.000Z,40
2019-05-16T00:56:42.000Z,40
2019-05-16T00:57:48.000Z,40
2019-05-16T00:58:54.000Z,40
2019-05-16T01:00:00.000Z,40
2019-05-16T01:01:06.000Z,40.1
2019-05-16T01:02:13.000Z,40
2019-05-16T01:03:19.000Z,40
2019-05-16T01:04:25.000Z,40
2019-05-16T01:05:31.000Z,40
2019-05-16T01:06:37.000Z,40.1
2019-05-16T01:07:43.000Z,40.1
2019-05-16T01:08:50.000Z,40
2019-05-16T01:09:56.000Z,40.1
2019-05-16T01:11:02.000Z,40
2019-05-16T01:12:08.000Z,40.1
2019-05-16T01:13:14.000Z,40.1
2019-05-16T01:14:21.000Z,40
2019-05-16T01:15:27.000Z,40
2019-05-16T01:16:33.000Z,40.1
2019-05-16T01:17:39.000Z,40.1
2019-05-16T01:18:45.000Z,40
2019-05-16T01:19:51.000Z,40.1
2019-05-16T01:20:58.000Z,40
2019-05-16T01:22:04.000Z,40
2019-05-16T01:23:10.000Z,40.2
2019-05-16T01:24:16.000Z,40.2
2019-05-16T01:25:22.000Z,40.2
2019-05-16T01:26:28.000Z,40.2
2019-05-16T01:27:35.000Z,40.3
2019-05-16T01:28:41.000Z,40.3
2019-05-16T01:29:47.000Z,40.3
2019-05-16T01:30:53.000Z,40.3
2019-05-16T01:31:59.000Z,40.3
2019-05-16T01:33:06.000Z,40.3
2019-05-16T01:34:12.000Z,40.4
2019-05-16T01:35:18.000Z,40.4
2019-05-16T01:36:24.000Z,40.3
2019-05-16T01:37:30.000Z,40.4
2019-05-16T01:38:36.000Z,40.4
2019-05-16T01:39:43.000Z,40.4
2019-05-16T01:40:49.000Z,40.4
2019-05-16T01:41:55.000Z,40.3
2019-05-16T01:43:01.000Z,40.4
2019-05-16T01:45:13.000Z,40.4
2019-05-16T01:46:20.000Z,40.4
2019-05-16T01:47:26.000Z,40.4
2019-05-16T01:48:32.000Z,40.4
2019-05-16T01:49:38.000Z,40.4
2019-05-16T01:50:44.000Z,40.4
2019-05-16T01:51:50.000Z,40.5
2019-05-16T01:52:57.000Z,40.4
2019-05-16T01:54:03.000Z,40.4
2019-05-16T01:55:09.000Z,40.4
2019-05-16T01:56:15.000Z,40.4
2019-05-16T01:57:21.000Z,40.4
2019-05-16T01:58:28.000Z,40.4
2019-05-16T01:59:34.000Z,40.4
2019-05-16T02:00:40.000Z,40.5
2019-05-16T02:01:46.000Z,40.4
2019-05-16T02:02:52.000Z,40.4
2019-05-16T02:03:58.000Z,40.4
2019-05-16T02:05:05.000Z,40.4
2019-05-16T02:06:11.000Z,40.3
2019-05-16T02:07:17.000Z,40.3
2019-05-16T02:08:23.000Z,40.3
2019-05-16T02:09:29.000Z,40.4
2019-05-16T02:10:35.000Z,40.3
2019-05-16T02:11:42.000Z,40.3
2019-05-16T02:12:48.000Z,40.3
2019-05-16T02:13:54.000Z,40.3
2019-05-16T02:15:00.000Z,40.4
2019-05-16T02:16:06.000Z,40.3
2019-05-16T02:17:13.000Z,40.3
2019-05-16T02:18:19.000Z,40.3
2019-05-16T02:19:25.000Z,40.3
2019-05-16T02:20:31.000Z,40.3
2019-05-16T02:21:37.000Z,40.3
2019-05-16T02:22:43.000Z,40.4
2019-05-16T02:23:50.000Z,40.3
2019-05-16T02:24:56.000Z,40.3
2019-05-16T02:26:02.000Z,40.2
2019-05-16T02:27:08.000Z,40.3
2019-05-16T02:28:14.000Z,40.3
2019-05-16T02:29:20.000Z,40.2
2019-05-16T02:30:27.000Z,40.2
2019-05-16T02:31:33.000Z,40.3
2019-05-16T02:32:39.000Z,40.3
2019-05-16T02:33:45.000Z,40.3
2019-05-16T02:34:51.000Z,40.2
2019-05-16T02:35:58.000Z,40.2
2019-05-16T02:37:04.000Z,40.2
2019-05-16T02:38:10.000Z,40.2
2019-05-16T02:39:16.000Z,40.3
2019-05-16T02:40:22.000Z,40.3
2019-05-16T02:41:28.000Z,40.2
2019-05-16T02:42:35.000Z,40.3
2019-05-16T02:43:41.000Z,40.3
2019-05-16T02:44:47.000Z,40.3
2019-05-16T02:45:53.000Z,40.3
2019-05-16T02:46:59.000Z,40.3
2019-05-16T02:48:05.000Z,40.3
2019-05-16T02:49:12.000Z,40.3
2019-05-16T02:50:18.000Z,40.2
2019-05-16T02:51:24.000Z,40.3
2019-05-16T02:52:30.000Z,40.3
2019-05-16T02:53:36.000Z,40.4
2019-05-16T02:54:42.000Z,40.3
2019-05-16T02:55:49.000Z,40.4
2019-05-16T02:56:55.000Z,40.3
2019-05-16T02:58:01.000Z,40.4
2019-05-16T02:59:07.000Z,40.3
2019-05-16T03:00:13.000Z,40.3
2019-05-16T03:01:20.000Z,40.3
2019-05-16T03:02:26.000Z,40.2
2019-05-16T03:03:32.000Z,40.3
2019-05-16T03:04:38.000Z,40.3
2019-05-16T03:05:44.000Z,40.3
2019-05-16T03:06:50.000Z,40.3
2019-05-16T03:07:57.000Z,40.3
2019-05-16T03:09:03.000Z,40.3
2019-05-16T03:10:09.000Z,40.3
2019-05-16T03:11:15.000Z,40.3
2019-05-16T03:12:21.000Z,40.3
2019-05-16T03:13:27.000Z,40.3
2019-05-16T03:14:34.000Z,40.3
2019-05-16T03:15:40.000Z,40.3
2019-05-16T03:16:46.000Z,40.3
2019-05-16T03:17:52.000Z,40.3
2019-05-16T03:18:58.000Z,40.4
2019-05-16T03:20:05.000Z,40.4
2019-05-16T03:21:11.000Z,40.5
2019-05-16T03:22:17.000Z,40.5
2019-05-16T03:23:23.000Z,40.5
2019-05-16T03:24:29.000Z,40.5
2019-05-16T03:25:35.000Z,40.5
2019-05-16T03:26:42.000Z,40.5
2019-05-16T03:27:48.000Z,40.5
2019-05-16T03:28:54.000Z,40.6
2019-05-16T03:30:00.000Z,40.6
2019-05-16T03:31:06.000Z,40.6
2019-05-16T03:32:12.000Z,40.6
2019-05-16T03:33:19.000Z,40.6
2019-05-16T03:34:25.000Z,40.6
2019-05-16T03:35:31.000Z,40.6
2019-05-16T03:36:37.000Z,40.6
2019-05-16T03:37:43.000Z,40.6
2019-05-16T03:38:49.000Z,40.6
2019-05-16T03:39:56.000Z,40.6
2019-05-16T03:41:02.000Z,40.6
2019-05-16T03:42:08.000Z,40.6
2019-05-16T03:43:14.000Z,40.6
2019-05-16T03:44:20.000Z,40.6
2019-05-16T03:45:27.000Z,40.6
2019-05-16T03:46:33.000Z,40.7
2019-05-16T03:47:39.000Z,40.7
2019-05-16T03:48:45.000Z,40.6
2019-05-16T03:49:51.000Z,40.6
2019-05-16T03:50:57.000Z,40.6
2019-05-16T03:52:04.000Z,40.6
2019-05-16T03:53:10.000Z,40.6
2019-05-16T03:54:16.000Z,40.7
2019-05-16T03:55:22.000Z,40.7
2019-05-16T03:56:28.000Z,40.6
2019-05-16T03:57:34.000Z,40.6
2019-05-16T03:58:41.000Z,40.6
2019-05-16T03:59:47.000Z,40.5
2019-05-16T04:00:53.000Z,40.6
2019-05-16T04:01:59.000Z,40.6
2019-05-16T04:03:05.000Z,40.6
2019-05-16T04:04:12.000Z,40.6
2019-05-16T04:05:18.000Z,40.5
2019-05-16T04:06:24.000Z,40.6
2019-05-16T04:07:30.000Z,40.6
2019-05-16T04:08:36.000Z,40.6
2019-05-16T04:09:42.000Z,40.5
2019-05-16T04:10:49.000Z,40.6
2019-05-16T04:11:55.000Z,40.5
2019-05-16T04:13:01.000Z,40.5
2019-05-16T04:14:07.000Z,40.5
2019-05-16T04:15:13.000Z,40.5
2019-05-16T04:16:19.000Z,40.5
2019-05-16T04:17:26.000Z,40.5
2019-05-16T04:18:32.000Z,40.5
2019-05-16T04:19:38.000Z,40.5
2019-05-16T04:20:44.000Z,40.5
2019-05-16T04:21:50.000Z,40.5
2019-05-16T04:22:57.000Z,40.5
2019-05-16T04:24:03.000Z,40.5
2019-05-16T04:25:09.000Z,40.5
2019-05-16T04:26:15.000Z,40.5
2019-05-16T04:27:21.000Z,40.4
2019-05-16T04:28:27.000Z,40.4
2019-05-16T04:29:34.000Z,40.4
2019-05-16T04:30:40.000Z,40.5
2019-05-16T04:31:46.000Z,40.5
2019-05-16T04:32:52.000Z,40.4
2019-05-16T04:33:58.000Z,40.5
2019-05-16T04:35:04.000Z,40.4
2019-05-16T04:36:11.000Z,40.5
2019-05-16T04:37:17.000Z,40.4
2019-05-16T04:38:23.000Z,40.5
2019-05-16T04:39:29.000Z,40.5
2019-05-16T04:40:35.000Z,40.5
2019-05-16T04:41:41.000Z,40.5
2019-05-16T04:42:48.000Z,40.4
2019-05-16T04:43:54.000Z,40.5
2019-05-16T04:45:00.000Z,40.5
2019-05-16T04:46:06.000Z,40.5
2019-05-16T04:47:12.000Z,40.5
2019-05-16T04:48:19.000Z,40.5
2019-05-16T04:49:25.000Z,40.5
2019-05-16T04:50:31.000Z,40.5
2019-05-16T04:51:37.000Z,40.4
2019-05-16T04:52:43.000Z,40.5
2019-05-16T04:53:49.000Z,40.5
2019-05-16T04:54:56.000Z,40.4
2019-05-16T04:56:02.000Z,40.5
2019-05-16T04:57:08.000Z,40.4
2019-05-16T04:58:14.000Z,40.5
2019-05-16T04:59:20.000Z,40.6
2019-05-16T05:00:26.000Z,40.5
2019-05-16T05:01:33.000Z,40.5
2019-05-16T05:02:39.000Z,40.5
2019-05-16T05:03:45.000Z,40.5
2019-05-16T05:04:51.000Z,40.5
2019-05-16T05:05:57.000Z,40.5
2019-05-16T05:07:04.000Z,40.5
2019-05-16T05:08:10.000Z,40.4
2019-05-16T05:09:16.000Z,40.4
2019-05-16T05:10:22.000Z,40.4
2019-05-16T05:11:28.000Z,40.4
2019-05-16T05:13:41.000Z,40.4
2019-05-16T05:14:47.000Z,40.4
2019-05-16T05:15:53.000Z,40.4
2019-05-16T05:16:59.000Z,40.4
2019-05-16T05:18:05.000Z,40.5
2019-05-16T05:20:18.000Z,40.6
2019-05-16T05:21:24.000Z,40.5
2019-05-16T05:22:30.000Z,40.5
2019-05-16T05:23:36.000Z,40.5
2019-05-16T05:24:42.000Z,40.6
2019-05-16T05:25:49.000Z,40.6
2019-05-16T05:26:55.000Z,40.6
2019-05-16T05:28:01.000Z,40.6
2019-05-16T05:29:07.000Z,40.6
2019-05-16T05:30:13.000Z,40.6
2019-05-16T05:31:19.000Z,40.7
2019-05-16T05:32:26.000Z,40.6
2019-05-16T05:33:32.000Z,40.6
2019-05-16T05:34:38.000Z,40.7
2019-05-16T05:35:44.000Z,40.7
2019-05-16T05:36:50.000Z,40.6
2019-05-16T05:37:56.000Z,40.7
2019-05-16T05:39:03.000Z,40.7
2019-05-16T05:40:09.000Z,40.7
2019-05-16T05:41:15.000Z,40.7
2019-05-16T05:42:21.000Z,40.6
2019-05-16T05:43:27.000Z,40.7
2019-05-16T05:44:34.000Z,40.6
2019-05-16T05:45:40.000Z,40.7
2019-05-16T05:46:46.000Z,40.7
2019-05-16T05:47:52.000Z,40.7
2019-05-16T05:48:58.000Z,40.7
2019-05-16T05:50:04.000Z,40.6
2019-05-16T05:51:11.000Z,40.6
2019-05-16T05:52:17.000Z,40.7
2019-05-16T05:53:23.000Z,40.7
2019-05-16T05:54:29.000Z,40.7
2019-05-16T05:55:35.000Z,40.7
2019-05-16T05:56:41.000Z,40.6
2019-05-16T05:57:48.000Z,40.5
2019-05-16T05:58:54.000Z,40.5
2019-05-16T06:00:00.000Z,40.6
2019-05-16T06:01:06.000Z,40.5
2019-05-16T06:02:12.000Z,40.5
2019-05-16T06:03:19.000Z,40.5
2019-05-16T06:04:25.000Z,40.5
2019-05-16T06:05:31.000Z,40.5
2019-05-16T06:06:37.000Z,40.5
2019-05-16T06:07:43.000Z,40.5
2019-05-16T06:08:49.000Z,40.5
2019-05-16T06:09:56.000Z,40.5
2019-05-16T06:11:02.000Z,40.4
2019-05-16T06:12:08.000Z,40.4
2019-05-16T06:13:14.000Z,40.4
2019-05-16T06:14:20.000Z,40.4
2019-05-16T06:15:26.000Z,40.4
2019-05-16T06:16:33.000Z,40.4
2019-05-16T06:17:39.000Z,40.3
2019-05-16T06:18:45.000Z,40.3
2019-05-16T06:19:51.000Z,40.4
2019-05-16T06:20:57.000Z,40.4
2019-05-16T06:22:04.000Z,40.3
2019-05-16T06:23:10.000Z,40.4
2019-05-16T06:24:16.000Z,40.3
2019-05-16T06:25:22.000Z,40.3
2019-05-16T06:26:28.000Z,40.3
2019-05-16T06:27:34.000Z,40.3
2019-05-16T06:28:41.000Z,40.4
2019-05-16T06:29:47.000Z,40.4
2019-05-16T06:30:53.000Z,40.4
2019-05-16T06:31:59.000Z,40.3
2019-05-16T06:33:05.000Z,40.3
2019-05-16T06:34:11.000Z,40.3
2019-05-16T06:35:18.000Z,40.4
2019-05-16T06:36:24.000Z,40.3
2019-05-16T06:37:30.000Z,40.3
2019-05-16T06:38:36.000Z,40.3
2019-05-16T06:39:42.000Z,40.3
2019-05-16T06:40:49.000Z,40.3
2019-05-16T06:41:55.000Z,40.3
2019-05-16T06:43:01.000Z,40.3
2019-05-16T06:44:07.000Z,40.4
2019-05-16T06:45:13.000Z,40.3
2019-05-16T06:46:19.000Z,40.3
2019-05-16T06:47:26.000Z,40.3
2019-05-16T06:48:32.000Z,40.3
2019-05-16T06:49:38.000Z,40.4
2019-05-16T06:50:44.000Z,40.3
2019-05-16T06:51:50.000Z,40.4
2019-05-16T06:52:56.000Z,40.3
2019-05-16T06:55:09.000Z,40.3
2019-05-16T06:56:15.000Z,40.4
2019-05-16T06:57:21.000Z,40.3
2019-05-16T06:58:27.000Z,40.3
2019-05-16T07:00:40.000Z,40.3
2019-05-16T07:01:46.000Z,40.3
2019-05-16T07:02:52.000Z,40.3
2019-05-16T07:03:58.000Z,40.3
2019-05-16T07:05:04.000Z,40.3
2019-05-16T07:06:11.000Z,40.3
2019-05-16T07:07:17.000Z,40.3
2019-05-16T07:08:23.000Z,40.3
2019-05-16T07:09:29.000Z,40.3
2019-05-16T07:10:35.000Z,40.3
2019-05-16T07:11:42.000Z,40.3
2019-05-16T07:12:48.000Z,40.3
2019-05-16T07:13:54.000Z,40.3
2019-05-16T07:15:00.000Z,40.3
2019-05-16T07:16:06.000Z,40.3
2019-05-16T07:17:12.000Z,40.3
2019-05-16T07:18:19.000Z,40.3
2019-05-16T07:19:25.000Z,40.3
2019-05-16T07:20:31.000Z,40.3
2019-05-16T07:21:37.000Z,40.4
2019-05-16T07:22:43.000Z,40.4
2019-05-16T07:23:49.000Z,40.4
2019-05-16T07:24:56.000Z,40.4
2019-05-16T07:26:02.000Z,40.4
2019-05-16T07:27:08.000Z,40.4
2019-05-16T07:28:14.000Z,40.4
2019-05-16T07:29:20.000Z,40.4
2019-05-16T07:30:27.000Z,40.5
2019-05-16T07:31:33.000Z,40.5
2019-05-16T07:32:39.000Z,40.4
2019-05-16T07:33:45.000Z,40.4
2019-05-16T07:34:51.000Z,40.4
2019-05-16T07:35:57.000Z,40.5
2019-05-16T07:37:04.000Z,40.4
2019-05-16T07:38:10.000Z,40.4
2019-05-16T07:39:16.000Z,40.5
2019-05-16T07:40:22.000Z,40.4
2019-05-16T07:41:28.000Z,40.5
2019-05-16T07:42:34.000Z,40.3
2019-05-16T07:43:41.000Z,40.4
2019-05-16T07:44:47.000Z,40.4
2019-05-16T07:45:53.000Z,40.4
2019-05-16T07:46:59.000Z,40.4
2019-05-16T07:48:05.000Z,40.4
2019-05-16T07:49:12.000Z,40.4
2019-05-16T07:50:18.000Z,40.3
2019-05-16T07:51:24.000Z,40.4
2019-05-16T07:52:30.000Z,40.4
2019-05-16T07:53:36.000Z,40.2
2019-05-16T07:54:42.000Z,40.3
2019-05-16T07:55:49.000Z,40.3
2019-05-16T07:56:55.000Z,40.2
2019-05-16T07:58:01.000Z,40.2
2019-05-16T07:59:07.000Z,40.2
2019-05-16T08:00:13.000Z,40.2
2019-05-16T08:01:19.000Z,40.1
2019-05-16T08:02:26.000Z,40.1
2019-05-16T08:03:32.000Z,40.1
2019-05-16T08:04:38.000Z,40
2019-05-16T08:05:44.000Z,40
2019-05-16T08:06:50.000Z,39.9
2019-05-16T08:07:57.000Z,39.9
2019-05-16T08:09:03.000Z,39.9
2019-05-16T08:10:09.000Z,39.9
2019-05-16T08:11:15.000Z,40
2019-05-16T08:12:21.000Z,39.9
2019-05-16T08:13:27.000Z,39.9
2019-05-16T08:14:34.000Z,39.9
2019-05-16T08:15:40.000Z,39.8
2019-05-16T08:16:46.000Z,39.9
2019-05-16T08:17:52.000Z,39.8
2019-05-16T08:18:58.000Z,39.7
2019-05-16T08:20:04.000Z,39.8
2019-05-16T08:21:11.000Z,39.9
2019-05-16T08:22:17.000Z,40
2019-05-16T08:23:23.000Z,40.1
2019-05-16T08:24:29.000Z,40.1
2019-05-16T08:25:35.000Z,40.1
2019-05-16T08:26:42.000Z,40.1
2019-05-16T08:27:48.000Z,40.1
2019-05-16T08:28:54.000Z,40.1
2019-05-16T08:30:00.000Z,40
2019-05-16T08:31:06.000Z,40.1
2019-05-16T08:32:12.000Z,40
2019-05-16T08:33:19.000Z,40
2019-05-16T08:34:25.000Z,40
2019-05-16T08:35:31.000Z,39.9
2019-05-16T08:36:37.000Z,39.9
2019-05-16T08:37:43.000Z,39.9
2019-05-16T08:38:49.000Z,39.9
2019-05-16T08:39:56.000Z,39.9
2019-05-16T08:41:02.000Z,39.9
2019-05-16T08:42:08.000Z,39.9
2019-05-16T08:43:14.000Z,39.9
2019-05-16T08:44:20.000Z,39.9
2019-05-16T08:45:27.000Z,39.9
2019-05-16T08:46:33.000Z,39.9
2019-05-16T08:47:39.000Z,39.9
2019-05-16T08:48:45.000Z,39.9
2019-05-16T08:49:51.000Z,39.9
2019-05-16T08:50:57.000Z,39.9
2019-05-16T08:52:04.000Z,39.9
2019-05-16T08:53:10.000Z,39.9
2019-05-16T08:54:16.000Z,39.9
2019-05-16T08:55:22.000Z,39.9
2019-05-16T08:56:28.000Z,39.9
2019-05-16T08:57:34.000Z,39.9
2019-05-16T08:58:41.000Z,39.9
2019-05-16T08:59:47.000Z,39.9
2019-05-16T09:00:53.000Z,39.9
2019-05-16T09:01:59.000Z,39.9
2019-05-16T09:03:05.000Z,39.8
2019-05-16T09:04:12.000Z,39.9
2019-05-16T09:05:18.000Z,39.9
2019-05-16T09:06:24.000Z,39.9
2019-05-16T09:07:30.000Z,39.9
2019-05-16T09:08:36.000Z,39.9
2019-05-16T09:09:42.000Z,39.9
2019-05-16T09:10:49.000Z,39.8
2019-05-16T09:11:55.000Z,39.9
2019-05-16T09:13:01.000Z,39.9
2019-05-16T09:14:07.000Z,40
2019-05-16T09:15:13.000Z,40
2019-05-16T09:16:20.000Z,39.9
2019-05-16T09:17:26.000Z,40
2019-05-16T09:18:32.000Z,40
2019-05-16T09:19:38.000Z,40
2019-05-16T09:20:44.000Z,39.9
2019-05-16T09:21:50.000Z,40
2019-05-16T09:22:57.000Z,40.1
2019-05-16T09:24:03.000Z,40
2019-05-16T09:25:09.000Z,40
2019-05-16T09:26:15.000Z,40
2019-05-16T09:27:21.000Z,39.9
2019-05-16T09:28:27.000Z,40
2019-05-16T09:29:34.000Z,40
2019-05-16T09:30:40.000Z,40
2019-05-16T09:31:46.000Z,40
2019-05-16T09:32:52.000Z,40
2019-05-16T09:33:58.000Z,40
2019-05-16T09:35:05.000Z,39.9
2019-05-16T09:36:11.000Z,40
2019-05-16T09:37:17.000Z,40
2019-05-16T09:38:23.000Z,40
2019-05-16T09:39:29.000Z,40.1
2019-05-16T09:40:35.000Z,40
2019-05-16T09:41:42.000Z,40
2019-05-16T09:42:48.000Z,40
2019-05-16T09:43:54.000Z,40
2019-05-16T09:45:00.000Z,40
2019-05-16T09:46:06.000Z,40
2019-05-16T09:47:12.000Z,40
2019-05-16T09:48:19.000Z,39.9
2019-05-16T09:49:25.000Z,40
2019-05-16T09:50:31.000Z,40
2019-05-16T09:51:37.000Z,40
2019-05-16T09:52:43.000Z,40
2019-05-16T09:53:50.000Z,39.9
2019-05-16T09:54:56.000Z,39.9
2019-05-16T10:24:42.000Z,39.7
2019-05-16T10:25:49.000Z,39.7
2019-05-16T10:26:55.000Z,39.8
2019-05-16T10:28:01.000Z,39.7
2019-05-16T10:30:13.000Z,39.7
2019-05-16T10:31:20.000Z,39.8
2019-05-16T10:32:26.000Z,39.8
2019-05-16T10:33:32.000Z,39.8
2019-05-16T10:34:38.000Z,39.8
2019-05-16T10:35:44.000Z,39.7
2019-05-16T10:36:50.000Z,39.8
2019-05-16T10:37:57.000Z,39.7
2019-05-16T10:39:03.000Z,39.8
2019-05-16T10:40:09.000Z,39.7
2019-05-16T10:41:15.000Z,39.8
2019-05-16T10:42:21.000Z,39.8
2019-05-16T10:43:27.000Z,39.7
2019-05-16T10:44:34.000Z,39.7
2019-05-16T10:45:40.000Z,39.7
2019-05-16T10:46:46.000Z,39.7
2019-05-16T10:47:52.000Z,39.7
2019-05-16T10:48:58.000Z,39.7
2019-05-16T10:50:05.000Z,39.7
2019-05-16T10:51:11.000Z,39.7
2019-05-16T10:52:17.000Z,39.8
2019-05-16T10:53:23.000Z,40.3
2019-05-16T10:54:29.000Z,40.3
2019-05-16T10:55:35.000Z,40.3
2019-05-16T10:56:42.000Z,40.3
2019-05-16T10:57:48.000Z,40.3
2019-05-16T10:58:54.000Z,40.2
2019-05-16T11:00:00.000Z,40.2
2019-05-16T11:01:06.000Z,40.1
2019-05-16T11:02:13.000Z,40.1
2019-05-16T11:03:19.000Z,40.1
2019-05-16T11:04:25.000Z,40.1
2019-05-16T11:05:31.000Z,40
2019-05-16T11:06:37.000Z,40
2019-05-16T11:07:43.000Z,40
2019-05-16T11:08:50.000Z,40
2019-05-16T11:09:56.000Z,40
2019-05-16T11:11:02.000Z,40
2019-05-16T11:12:08.000Z,40
2019-05-16T11:13:14.000Z,40.1
2019-05-16T11:14:20.000Z,40.1
2019-05-16T11:15:27.000Z,40.1
2019-05-16T11:16:33.000Z,40
2019-05-16T11:17:39.000Z,40.1
2019-05-16T11:18:45.000Z,40.1
2019-05-16T11:19:51.000Z,40.1
2019-05-16T11:20:58.000Z,40.1
2019-05-16T11:22:04.000Z,40.1
2019-05-16T11:23:10.000Z,40.1
2019-05-16T11:24:16.000Z,40.1
2019-05-16T11:25:22.000Z,40
2019-05-16T11:26:28.000Z,40
2019-05-16T11:27:35.000Z,40
2019-05-16T11:28:41.000Z,40
2019-05-16T11:29:47.000Z,40
2019-05-16T11:30:53.000Z,40
2019-05-16T11:31:59.000Z,40
2019-05-16T11:33:05.000Z,40
2019-05-16T11:34:12.000Z,40
2019-05-16T11:35:18.000Z,40
2019-05-16T11:36:24.000Z,39.9
2019-05-16T11:37:30.000Z,40
2019-05-16T11:38:36.000Z,40
2019-05-16T11:39:43.000Z,40
2019-05-16T11:40:49.000Z,40
2019-05-16T11:41:55.000Z,40
2019-05-16T11:43:01.000Z,40
2019-05-16T11:44:07.000Z,40
2019-05-16T11:45:13.000Z,39.9
2019-05-16T11:46:20.000Z,39.9
2019-05-16T11:47:26.000Z,39.9
2019-05-16T11:48:32.000Z,39.9
2019-05-16T11:49:38.000Z,39.9
2019-05-16T11:50:44.000Z,39.9
2019-05-16T11:51:50.000Z,39.9
2019-05-16T11:52:57.000Z,39.8
2019-05-16T11:54:03.000Z,39.8
2019-05-16T11:55:09.000Z,39.8
2019-05-16T11:56:15.000Z,39.8
2019-05-16T11:57:21.000Z,39.8
2019-05-16T11:58:28.000Z,39.8
2019-05-16T11:59:34.000Z,39.8
2019-05-16T12:00:40.000Z,39.8
2019-05-16T12:01:46.000Z,39.8
2019-05-16T12:02:52.000Z,39.8
2019-05-16T12:03:58.000Z,39.9
2019-05-16T12:05:05.000Z,40
2019-05-16T12:06:11.000Z,40
2019-05-16T12:07:17.000Z,40
2019-05-16T12:08:23.000Z,40.2
2019-05-16T12:09:29.000Z,40.2
2019-05-16T12:10:36.000Z,40.2
2019-05-16T12:12:48.359Z,40
2019-05-16T12:13:54.000Z,40
2019-05-16T12:15:00.000Z,40
2019-05-16T12:16:06.000Z,40
2019-05-16T12:17:13.000Z,40
2019-05-16T12:18:19.000Z,40
2019-05-16T12:19:25.000Z,40
2019-05-16T12:20:31.000Z,39.9
2019-05-16T12:21:37.000Z,39.9
2019-05-16T12:22:43.000Z,39.9
2019-05-16T12:23:50.000Z,39.9
2019-05-16T12:24:56.000Z,39.9
2019-05-16T12:26:02.000Z,39.9
2019-05-16T12:27:08.000Z,39.9
2019-05-16T12:28:14.000Z,39.9
2019-05-16T12:29:21.000Z,39.9
2019-05-16T12:30:27.000Z,39.9
2019-05-16T12:31:33.000Z,39.9
2019-05-16T12:32:39.000Z,39.9
2019-05-16T12:33:45.000Z,39.9
2019-05-16T12:35:58.000Z,39.9
2019-05-16T12:37:04.000Z,39.9
2019-05-16T12:38:10.000Z,39.9
2019-05-16T12:39:16.000Z,39.9
2019-05-16T12:40:22.000Z,39.8
2019-05-16T12:41:28.000Z,39.9
2019-05-16T12:42:35.000Z,39.8
2019-05-16T12:43:41.000Z,39.8
2019-05-16T12:45:53.000Z,39.8
2019-05-16T12:46:59.000Z,39.8
2019-05-16T12:48:06.000Z,39.9
2019-05-16T12:49:12.000Z,39.9
2019-05-16T12:50:18.000Z,40
2019-05-16T12:51:24.000Z,39.9
2019-05-16T12:52:30.000Z,39.9
2019-05-16T12:53:36.000Z,39.9
2019-05-16T12:54:43.000Z,39.9
2019-05-16T12:55:49.000Z,39.9
2019-05-16T12:56:55.000Z,39.9
2019-05-16T12:58:01.000Z,39.9
2019-05-16T12:59:07.000Z,39.9
2019-05-16T13:00:13.000Z,39.9
2019-05-16T13:01:20.000Z,39.9
2019-05-16T13:02:26.000Z,39.9
2019-05-16T13:03:32.000Z,39.9
2019-05-16T13:04:38.000Z,39.9
2019-05-16T13:05:44.000Z,39.9
2019-05-16T13:06:51.000Z,39.9
2019-05-16T13:13:28.000Z,39.9
2019-05-16T13:14:34.000Z,39.9
2019-05-16T13:15:40.000Z,39.9
2019-05-16T13:16:46.000Z,40
2019-05-16T13:17:52.000Z,40.2
2019-05-16T13:18:58.000Z,40.5
2019-05-16T13:20:05.000Z,40.6
2019-05-16T13:21:11.000Z,40.7
2019-05-16T13:22:17.000Z,40.8
2019-05-16T13:23:23.000Z,40.9
2019-05-16T13:24:29.000Z,40.9
2019-05-16T13:25:36.000Z,40.9
2019-05-16T13:26:42.000Z,40.9
2019-05-16T13:27:48.000Z,40.8
2019-05-16T13:28:54.000Z,40.8
2019-05-16T13:30:00.000Z,40.8
2019-05-16T13:31:06.000Z,40.8
2019-05-16T13:32:13.000Z,40.8
2019-05-16T13:33:19.000Z,40.7
2019-05-16T13:34:25.000Z,40.7
2019-05-16T13:35:31.000Z,40.6
2019-05-16T13:36:37.000Z,40.6
2019-05-16T13:37:44.000Z,40.6
2019-05-16T13:38:50.000Z,40.5
2019-05-16T13:39:56.000Z,40.5
2019-05-16T13:41:02.000Z,40.5
2019-05-16T13:42:08.000Z,40.4
2019-05-16T13:43:14.000Z,40.4
2019-05-16T13:44:21.000Z,40.4
2019-05-16T13:45:27.000Z,40.4
2019-05-16T13:46:33.000Z,40.4
2019-05-16T13:47:39.000Z,40.4
2019-05-16T13:48:45.000Z,40.4
2019-05-16T13:49:51.000Z,40.3
2019-05-16T13:50:58.000Z,40.3
2019-05-16T13:52:04.000Z,40.3
2019-05-16T13:53:10.000Z,40.3
2019-05-16T13:54:16.000Z,40.3
2019-05-16T13:55:22.000Z,40.3
2019-05-16T13:56:29.000Z,40.3
2019-05-16T13:57:35.000Z,40.2
2019-05-16T13:58:41.000Z,40.2
2019-05-16T13:59:47.000Z,40.2
2019-05-16T14:00:53.000Z,40.2
2019-05-16T14:01:59.000Z,40.2
2019-05-16T14:03:06.000Z,40.2
2019-05-16T14:04:12.000Z,40
2019-05-16T14:05:18.000Z,40
2019-05-16T14:06:24.000Z,40
2019-05-16T14:07:30.000Z,40
2019-05-16T14:08:36.000Z,40
2019-05-16T14:09:43.000Z,40
2019-05-16T14:10:49.000Z,40
2019-05-16T14:11:55.000Z,40
2019-05-16T14:13:01.000Z,40.6
2019-05-16T14:14:07.000Z,40.5
2019-05-16T14:15:14.000Z,40.6
2019-05-16T14:16:20.000Z,40.6
2019-05-16T14:17:26.000Z,40.6
2019-05-16T14:18:32.000Z,40.6
2019-05-16T14:19:38.000Z,40.6
2019-05-16T14:21:51.000Z,40.5
2019-05-16T14:22:57.000Z,40.5
2019-05-16T14:24:03.000Z,40.4
2019-05-16T14:25:09.000Z,40.4
2019-05-16T14:26:15.000Z,40.3
2019-05-16T14:27:21.000Z,40.3
2019-05-16T14:28:28.000Z,40.3
2019-05-16T14:29:34.000Z,40.2
2019-05-16T14:30:40.000Z,40.1
2019-05-16T14:31:46.000Z,40.5
2019-05-16T14:32:52.000Z,40.6
2019-05-16T14:33:59.000Z,40.6
2019-05-16T14:35:05.000Z,40.7
2019-05-16T14:36:11.000Z,40.9
2019-05-16T14:37:17.000Z,40.8
2019-05-16T14:38:23.000Z,40.9
2019-05-16T14:39:29.000Z,40.8
2019-05-16T14:40:36.000Z,40.9
2019-05-16T14:41:42.000Z,40.9
2019-05-16T14:42:48.000Z,40.8
2019-05-16T14:43:54.000Z,40.7
2019-05-16T14:45:00.000Z,40.7
2019-05-16T14:46:06.000Z,40.7
2019-05-16T14:47:13.000Z,40.6
2019-05-16T14:48:19.000Z,40.6
2019-05-16T14:49:25.000Z,40.6
2019-05-16T14:50:31.000Z,40.5
2019-05-16T14:51:37.000Z,40.5
2019-05-16T14:52:44.000Z,40.5
2019-05-16T14:53:50.000Z,40.5
2019-05-16T14:56:02.000Z,40.4
2019-05-16T14:57:08.000Z,40.4
2019-05-16T14:58:14.000Z,40.4
2019-05-16T14:59:21.000Z,40.4
2019-05-16T15:00:27.000Z,40.4
2019-05-16T15:01:33.000Z,40.4
2019-05-16T15:02:39.000Z,40.4
2019-05-16T15:03:45.000Z,40.4
2019-05-16T15:04:51.000Z,40.4
2019-05-16T15:05:58.000Z,40.4
2019-05-16T15:07:04.000Z,40.3
2019-05-16T15:08:10.000Z,40.4
2019-05-16T15:09:16.000Z,40.3
2019-05-16T15:10:22.000Z,40.3
2019-05-16T15:11:29.000Z,40.3
2019-05-16T15:12:35.000Z,40.4
2019-05-16T15:13:41.000Z,40.4
2019-05-16T15:14:47.000Z,40.4
2019-05-16T15:16:59.000Z,40.4
2019-05-16T15:18:06.000Z,40.4
2019-05-16T15:19:12.000Z,40.4
2019-05-16T15:20:18.000Z,40.4
2019-05-16T15:21:24.000Z,40.4
2019-05-16T15:22:30.000Z,40.4
2019-05-16T15:23:36.000Z,40.4
2019-05-16T15:24:43.000Z,40.4
2019-05-16T15:25:49.000Z,40.4
2019-05-16T15:26:55.000Z,40.4
2019-05-16T15:28:01.000Z,40.4
2019-05-16T15:29:07.000Z,40.4
2019-05-16T15:30:14.000Z,40.4
2019-05-16T15:31:20.000Z,40.4
2019-05-16T15:32:26.000Z,40.3
2019-05-16T15:33:32.000Z,40.3
2019-05-16T15:34:38.000Z,40.4
2019-05-16T15:35:44.000Z,40.4
2019-05-16T15:36:51.000Z,40.4
2019-05-16T15:37:57.000Z,40.4